Terminal Aerodrome Forecast
Issued by NWS

Home | Current Version | Previous Version | Text Only | Print | Product List | Glossary On
Versions: 1 2 3 4 5 6 7 8 9 10 11 12
000
FTUS44 KLIX 011700 RRA
TAFMSY
TAF
KMSY 011752Z 0118/0218 19008KT P6SM VCSH SCT035 BKN050
     FM020200 26010KT 5SM -SHRA OVC025
     FM020600 32015G21KT P6SM OVC020
     FM020900 33019G26KT P6SM BKN035
     FM021200 34016G23KT P6SM SCT100=

USA.gov is the U.S. government's official web portal to all federal, state and local government web resources and services.